createdAt,value
2017-05-06T00:00:37.430Z,9.21
2017-05-06T00:01:46.327Z,9.28
2017-05-06T00:02:55.544Z,9.23
2017-05-06T00:04:04.758Z,9.2
2017-05-06T00:05:14.450Z,9.29
2017-05-06T00:06:23.345Z,9.32
2017-05-06T00:07:32.561Z,9.26
2017-05-06T00:08:41.780Z,9.23
2017-05-06T00:09:51.324Z,9.31
2017-05-06T00:11:00.715Z,9.28
2017-05-06T00:12:09.607Z,9.32
2017-05-06T00:13:18.828Z,9.2
2017-05-06T00:14:28.049Z,9.31
2017-05-06T00:15:37.264Z,9.23
2017-05-06T00:16:46.254Z,9.23
2017-05-06T00:17:56.120Z,9.33
2017-05-06T00:19:05.660Z,9.28
2017-05-06T00:20:14.552Z,9.31
2017-05-06T00:21:23.448Z,9.28
2017-05-06T00:22:32.765Z,9.31
2017-05-06T00:23:41.651Z,9.28
2017-05-06T00:24:50.546Z,9.31
2017-05-06T00:25:59.435Z,9.32
2017-05-06T00:27:08.323Z,9.26
2017-05-06T00:28:17.640Z,9.24
2017-05-06T00:29:26.533Z,9.21
2017-05-06T00:30:35.746Z,9.23
2017-05-06T00:31:44.995Z,9.32
2017-05-06T00:32:54.210Z,9.32
2017-05-06T00:34:04.142Z,9.31
2017-05-06T00:35:13.683Z,9.31
2017-05-06T00:36:22.576Z,9.33
2017-05-06T00:37:31.462Z,9.38
2017-05-06T00:38:40.688Z,9.35
2017-05-06T00:39:49.674Z,9.23
2017-05-06T00:40:58.562Z,9.32
2017-05-06T00:42:07.452Z,9.36
2017-05-06T00:43:16.997Z,9.32
2017-05-06T00:44:26.151Z,9.39
2017-05-06T00:45:35.040Z,9.4
2017-05-06T00:46:43.931Z,9.33
2017-05-06T00:47:53.147Z,9.35
2017-05-06T00:49:02.358Z,9.32
2017-05-06T00:50:12.232Z,9.31
2017-05-06T00:51:21.589Z,9.33
2017-05-06T00:52:30.804Z,9.26
2017-05-06T00:53:40.018Z,9.23
2017-05-06T00:54:49.237Z,9.23
2017-05-06T00:55:58.125Z,9.35
2017-05-06T00:57:07.965Z,9.32
2017-05-06T00:58:16.902Z,9.18
2017-05-06T00:59:27.101Z,9.26
2017-05-06T01:00:36.314Z,9.21
2017-05-06T01:01:45.849Z,9.36
2017-05-06T01:02:54.739Z,9.23
2017-05-06T01:04:03.951Z,9.18
2017-05-06T01:05:12.840Z,9.26
2017-05-06T01:06:22.385Z,9.23
2017-05-06T01:07:31.274Z,9.21
2017-05-06T01:08:40.863Z,9.17
2017-05-06T01:09:49.750Z,9.28
2017-05-06T01:10:58.965Z,9.26
2017-05-06T01:12:08.177Z,9.23
2017-05-06T01:13:17.396Z,9.28
2017-05-06T01:14:26.786Z,9.26
2017-05-06T01:15:35.668Z,9.33
2017-05-06T01:16:44.880Z,9.29
2017-05-06T01:17:54.425Z,9.26
2017-05-06T01:19:03.974Z,9.24
2017-05-06T01:20:12.864Z,9.24
2017-05-06T01:21:21.756Z,9.21
2017-05-06T01:22:30.971Z,9.28
2017-05-06T01:23:40.183Z,9.2
2017-05-06T01:24:49.394Z,9.21
2017-05-06T01:25:59.306Z,9.15
2017-05-06T01:27:08.197Z,9.28
2017-05-06T01:28:17.084Z,9.26
2017-05-06T01:29:26.630Z,9.33
2017-05-06T01:30:35.517Z,9.23
2017-05-06T01:31:44.654Z,9.14
2017-05-06T01:32:54.193Z,9.18
2017-05-06T01:34:03.735Z,9.2
2017-05-06T01:35:12.950Z,9.35
2017-05-06T01:36:22.515Z,9.33
2017-05-06T01:37:31.986Z,9.23
2017-05-06T01:38:41.536Z,9.29
2017-05-06T01:39:51.074Z,9.33
2017-05-06T01:40:59.973Z,9.28
2017-05-06T01:42:09.188Z,9.31
2017-05-06T01:43:18.130Z,9.28
2017-05-06T01:44:27.678Z,9.21
2017-05-06T01:45:37.217Z,9.33
2017-05-06T01:46:46.109Z,9.32
2017-05-06T01:47:55.322Z,9.29
2017-05-06T01:49:04.792Z,9.28
2017-05-06T01:50:13.685Z,9.32
2017-05-06T01:51:22.568Z,9.42
2017-05-06T01:52:31.458Z,9.47
2017-05-06T01:53:40.670Z,9.46
2017-05-06T01:54:49.710Z,9.4
2017-05-06T01:55:58.600Z,9.38
2017-05-06T01:57:07.489Z,9.47
2017-05-06T01:58:17.029Z,9.36
2017-05-06T01:59:26.895Z,9.43
2017-05-06T02:00:36.317Z,9.46
2017-05-06T02:01:45.206Z,9.4
2017-05-06T02:02:54.097Z,9.51
2017-05-06T02:04:03.313Z,9.47
2017-05-06T02:05:12.204Z,9.42
2017-05-06T02:06:21.196Z,9.42
2017-05-06T02:07:30.083Z,9.46
2017-05-06T02:08:39.296Z,9.4
2017-05-06T02:09:48.846Z,9.47
2017-05-06T02:10:59.043Z,9.43
2017-05-06T02:12:08.409Z,9.46
2017-05-06T02:13:17.645Z,9.42
2017-05-06T02:14:27.192Z,9.43
2017-05-06T02:15:36.080Z,9.39
2017-05-06T02:16:45.290Z,9.39
2017-05-06T02:17:54.283Z,9.47
2017-05-06T02:19:03.170Z,9.48
2017-05-06T02:20:12.388Z,9.43
2017-05-06T02:21:21.277Z,9.51
2017-05-06T02:22:30.487Z,9.51
2017-05-06T02:23:39.757Z,9.51
2017-05-06T02:24:49.296Z,9.53
2017-05-06T02:25:58.831Z,9.5
2017-05-06T02:27:07.714Z,9.51
2017-05-06T02:28:16.603Z,9.39
2017-05-06T02:29:26.296Z,9.43
2017-05-06T02:30:35.182Z,9.39
2017-05-06T02:31:44.398Z,9.47
2017-05-06T02:32:53.289Z,9.4
2017-05-06T02:34:02.502Z,9.5
2017-05-06T02:35:11.444Z,9.47
2017-05-06T02:36:20.339Z,9.42
2017-05-06T02:37:29.545Z,9.47
2017-05-06T02:38:38.754Z,9.48
2017-05-06T02:39:47.967Z,9.43
2017-05-06T02:40:56.911Z,9.48
2017-05-06T02:42:06.121Z,9.48
2017-05-06T02:43:15.005Z,9.46
2017-05-06T02:44:24.544Z,9.46
2017-05-06T02:45:33.461Z,9.4
2017-05-06T02:46:42.957Z,9.48
2017-05-06T02:47:51.850Z,9.47
2017-05-06T02:49:00.739Z,9.53
2017-05-06T02:50:09.633Z,9.48
2017-05-06T02:51:18.520Z,9.48
2017-05-06T02:52:27.664Z,9.46
2017-05-06T02:53:36.879Z,9.39
2017-05-06T02:54:45.765Z,9.48
2017-05-06T02:55:54.974Z,9.48
2017-05-06T02:57:04.188Z,9.43
2017-05-06T02:58:13.703Z,9.43
2017-05-06T02:59:23.600Z,9.42
2017-05-06T03:00:33.142Z,9.46
2017-05-06T03:01:42.032Z,9.4
2017-05-06T03:02:51.575Z,9.4
2017-05-06T03:04:01.274Z,9.4
2017-05-06T03:05:10.815Z,9.4
2017-05-06T03:06:19.702Z,9.4
2017-05-06T03:07:28.921Z,9.51
2017-05-06T03:08:38.462Z,9.48
2017-05-06T03:09:48.202Z,9.35
2017-05-06T03:10:57.740Z,9.46
2017-05-06T03:12:06.950Z,9.4
2017-05-06T03:13:15.838Z,9.42
2017-05-06T03:14:25.704Z,9.47
2017-05-06T03:15:35.291Z,9.36
2017-05-06T03:16:44.175Z,9.47
2017-05-06T03:17:53.064Z,9.4
2017-05-06T03:19:02.604Z,9.43
2017-05-06T03:20:11.818Z,9.51
2017-05-06T03:21:20.881Z,9.56
2017-05-06T03:22:29.768Z,9.54
2017-05-06T03:23:38.656Z,9.43
2017-05-06T03:24:47.874Z,9.42
2017-05-06T03:25:57.086Z,9.4
2017-05-06T03:27:06.124Z,9.43
2017-05-06T03:28:15.337Z,9.4
2017-05-06T03:29:24.556Z,9.48
2017-05-06T03:30:33.767Z,9.54
2017-05-06T03:31:43.307Z,9.53
2017-05-06T03:32:52.626Z,9.42
2017-05-06T03:34:01.838Z,9.51
2017-05-06T03:35:11.055Z,9.54
2017-05-06T03:36:20.916Z,9.56
2017-05-06T03:37:30.452Z,9.54
2017-05-06T03:38:40.043Z,9.48
2017-05-06T03:39:49.584Z,9.56
2017-05-06T03:40:59.139Z,9.46
2017-05-06T03:42:08.024Z,9.4
2017-05-06T03:43:17.235Z,9.42
2017-05-06T03:44:26.276Z,9.35
2017-05-06T03:45:35.821Z,9.47
2017-05-06T03:46:45.037Z,9.5
2017-05-06T03:47:54.253Z,9.39
2017-05-06T03:49:04.125Z,9.46
2017-05-06T03:50:13.020Z,9.4
2017-05-06T03:51:21.913Z,9.51
2017-05-06T03:52:30.803Z,9.53
2017-05-06T03:53:40.037Z,9.58
2017-05-06T03:54:49.573Z,9.58
2017-05-06T03:55:58.869Z,9.54
2017-05-06T03:57:07.752Z,9.4
2017-05-06T03:58:16.644Z,9.46
2017-05-06T03:59:25.857Z,9.47
2017-05-06T04:00:35.070Z,9.5
2017-05-06T04:01:44.006Z,9.43
2017-05-06T04:02:53.223Z,9.48
2017-05-06T04:04:02.443Z,9.4
2017-05-06T04:05:11.653Z,9.4
2017-05-06T04:06:20.539Z,9.42
2017-05-06T04:07:29.851Z,9.53
2017-05-06T04:08:39.390Z,9.53
2017-05-06T04:09:48.280Z,9.48
2017-05-06T04:10:58.145Z,9.54
2017-05-06T04:12:07.715Z,9.56
2017-05-06T04:13:17.502Z,9.6
2017-05-06T04:14:26.717Z,9.5
2017-05-06T04:15:35.613Z,9.57
2017-05-06T04:16:44.498Z,9.39
2017-05-06T04:17:53.724Z,9.5
2017-05-06T04:19:02.987Z,9.39
2017-05-06T04:20:12.528Z,9.43
2017-05-06T04:21:21.416Z,9.47
2017-05-06T04:22:30.628Z,9.46
2017-05-06T04:23:39.844Z,9.39
2017-05-06T04:24:49.762Z,9.46
2017-05-06T04:25:59.629Z,9.36
2017-05-06T04:27:08.841Z,9.4
2017-05-06T04:28:17.735Z,9.46
2017-05-06T04:29:26.954Z,9.43
2017-05-06T04:30:36.169Z,9.51
2017-05-06T04:31:45.390Z,9.53
2017-05-06T04:32:54.285Z,9.56
2017-05-06T04:34:04.152Z,9.58
2017-05-06T04:35:14.017Z,9.47
2017-05-06T04:36:23.533Z,9.54
2017-05-06T04:37:32.749Z,9.54
2017-05-06T04:38:41.969Z,9.56
2017-05-06T04:39:51.190Z,9.56
2017-05-06T04:41:00.724Z,9.54
2017-05-06T04:42:09.867Z,9.53
2017-05-06T04:43:18.753Z,9.51
2017-05-06T04:44:27.967Z,9.53
2017-05-06T04:45:36.855Z,9.54
2017-05-06T04:46:45.741Z,9.56
2017-05-06T04:47:55.111Z,9.57
2017-05-06T04:49:04.975Z,9.56
2017-05-06T04:50:14.191Z,9.6
2017-05-06T04:51:23.080Z,9.61
2017-05-06T04:52:32.951Z,9.66
2017-05-06T04:53:42.368Z,9.69
2017-05-06T04:54:51.253Z,9.66
2017-05-06T04:56:00.508Z,9.68
2017-05-06T04:57:09.721Z,9.69
2017-05-06T04:58:18.612Z,9.74
2017-05-06T04:59:27.599Z,9.74
2017-05-06T05:00:36.481Z,9.78
2017-05-06T05:01:45.370Z,9.75
2017-05-06T05:02:54.265Z,9.72
2017-05-06T05:04:03.487Z,9.71
2017-05-06T05:05:12.551Z,9.68
2017-05-06T05:06:21.767Z,9.75
2017-05-06T05:07:30.980Z,9.81
2017-05-06T05:08:39.871Z,9.81
2017-05-06T05:09:48.762Z,9.81
2017-05-06T05:10:58.777Z,9.91
2017-05-06T05:12:07.993Z,9.83
2017-05-06T05:13:16.887Z,9.9
2017-05-06T05:14:26.107Z,9.91
2017-05-06T05:15:35.325Z,9.79
2017-05-06T05:16:44.914Z,9.81
2017-05-06T05:17:53.802Z,9.81
2017-05-06T05:19:03.017Z,9.86
2017-05-06T05:20:11.908Z,9.79
2017-05-06T05:21:20.799Z,9.83
2017-05-06T05:22:30.013Z,9.81
2017-05-06T05:23:38.902Z,9.81
2017-05-06T05:24:48.126Z,9.83
2017-05-06T05:25:57.021Z,9.87
2017-05-06T05:27:05.907Z,9.9
2017-05-06T05:28:14.905Z,9.81
2017-05-06T05:29:23.791Z,9.84
2017-05-06T05:30:33.007Z,9.75
2017-05-06T05:31:42.229Z,9.79
2017-05-06T05:32:51.452Z,9.86
2017-05-06T05:34:00.673Z,9.91
2017-05-06T05:35:09.569Z,9.83
2017-05-06T05:36:18.782Z,9.87
2017-05-06T05:37:27.670Z,9.87
2017-05-06T05:38:36.882Z,9.89
2017-05-06T05:39:46.245Z,9.9
2017-05-06T05:40:55.135Z,9.87
2017-05-06T05:42:04.353Z,9.87
2017-05-06T05:43:13.571Z,9.79
2017-05-06T05:44:22.791Z,9.93
2017-05-06T05:45:32.478Z,9.94
2017-05-06T05:46:41.367Z,9.91
2017-05-06T05:47:50.598Z,9.97
2017-05-06T05:49:00.138Z,9.96
2017-05-06T05:50:09.350Z,10.05
2017-05-06T05:51:18.720Z,10.07
2017-05-06T05:52:27.937Z,9.99
2017-05-06T05:53:37.151Z,10.09
2017-05-06T05:54:46.367Z,10.11
2017-05-06T05:55:55.905Z,10.08
2017-05-06T05:57:04.942Z,9.93
2017-05-06T05:58:14.158Z,10.07
2017-05-06T05:59:23.373Z,9.97
2017-05-06T06:00:32.272Z,9.89
2017-05-06T06:01:41.485Z,10.02
2017-05-06T06:02:50.907Z,9.97
2017-05-06T06:04:00.450Z,9.97
2017-05-06T06:05:09.337Z,9.87
2017-05-06T06:06:18.232Z,9.87
2017-05-06T06:07:27.120Z,9.97
2017-05-06T06:08:36.314Z,9.87
2017-05-06T06:09:45.203Z,9.83
2017-05-06T06:10:54.095Z,9.86
2017-05-06T06:12:03.638Z,9.83
2017-05-06T06:13:12.532Z,9.79
2017-05-06T06:14:21.575Z,9.89
2017-05-06T06:15:30.465Z,9.9
2017-05-06T06:16:39.688Z,9.97
2017-05-06T06:17:48.905Z,10.04
2017-05-06T06:18:57.796Z,9.99
2017-05-06T06:20:07.388Z,10.2
2017-05-06T06:21:16.610Z,10.09
2017-05-06T06:22:25.832Z,10.11
2017-05-06T06:23:35.379Z,10.18
2017-05-06T06:24:44.923Z,10.15
2017-05-06T06:25:54.191Z,10.26
2017-05-06T06:27:03.116Z,10.23
2017-05-06T06:28:12.332Z,10.23
2017-05-06T06:29:21.223Z,10.27
2017-05-06T06:30:30.115Z,10.33
2017-05-06T06:31:39.157Z,10.18
2017-05-06T06:32:49.030Z,10.18
2017-05-06T06:33:58.249Z,10.22
2017-05-06T06:35:07.474Z,10.22
2017-05-06T06:36:16.368Z,10.2
2017-05-06T06:37:25.639Z,10.15
2017-05-06T06:38:34.855Z,10.25
2017-05-06T06:39:44.075Z,10.34
2017-05-06T06:40:53.616Z,10.33
2017-05-06T06:42:02.503Z,10.33
2017-05-06T06:43:11.647Z,10.33
2017-05-06T06:44:20.865Z,10.41
2017-05-06T06:45:29.758Z,10.44
2017-05-06T06:46:39.295Z,10.34
2017-05-06T06:47:48.514Z,10.34
2017-05-06T06:48:57.881Z,10.34
2017-05-06T06:50:07.100Z,10.4
2017-05-06T06:51:15.993Z,10.41
2017-05-06T06:52:24.891Z,10.41
2017-05-06T06:53:34.430Z,10.38
2017-05-06T06:54:43.576Z,10.27
2017-05-06T06:55:53.115Z,10.41
2017-05-06T06:57:02.010Z,10.41
2017-05-06T06:58:11.231Z,10.42
2017-05-06T06:59:20.121Z,10.29
2017-05-06T07:00:29.158Z,10.33
2017-05-06T07:01:38.053Z,10.38
2017-05-06T07:02:47.267Z,10.47
2017-05-06T07:03:56.483Z,10.48
2017-05-06T07:05:06.025Z,10.44
2017-05-06T07:06:15.167Z,10.41
2017-05-06T07:07:24.061Z,10.29
2017-05-06T07:08:32.984Z,10.41
2017-05-06T07:09:42.201Z,10.51
2017-05-06T07:10:51.747Z,10.63
2017-05-06T07:12:01.011Z,10.52
2017-05-06T07:13:09.903Z,10.56
2017-05-06T07:14:18.796Z,10.51
2017-05-06T07:15:27.693Z,10.55
2017-05-06T07:16:36.585Z,10.6
2017-05-06T07:17:45.800Z,10.73
2017-05-06T07:18:54.692Z,10.7
2017-05-06T07:20:03.913Z,10.76
2017-05-06T07:21:13.126Z,10.81
2017-05-06T07:22:22.348Z,10.79
2017-05-06T07:23:31.563Z,10.86
2017-05-06T07:24:40.776Z,10.85
2017-05-06T07:25:50.326Z,10.91
2017-05-06T07:26:59.225Z,10.85
2017-05-06T07:28:09.088Z,10.85
2017-05-06T07:29:18.611Z,10.85
2017-05-06T07:30:27.501Z,10.85
2017-05-06T07:31:36.718Z,10.82
2017-05-06T07:32:45.608Z,10.88
2017-05-06T07:33:54.826Z,10.79
2017-05-06T07:35:03.771Z,10.91
2017-05-06T07:36:12.663Z,10.92
2017-05-06T07:37:21.885Z,10.94
2017-05-06T07:38:30.778Z,10.91
2017-05-06T07:39:39.677Z,10.88
2017-05-06T07:40:48.570Z,10.97
2017-05-06T07:41:57.475Z,10.89
2017-05-06T07:43:06.710Z,10.91
2017-05-06T07:44:16.255Z,11.02
2017-05-06T07:45:25.502Z,11.04
2017-05-06T07:46:34.396Z,11.1
2017-05-06T07:47:43.620Z,11.04
2017-05-06T07:48:52.843Z,11
2017-05-06T07:50:02.277Z,11.02
2017-05-06T07:51:11.196Z,10.97
2017-05-06T07:52:20.415Z,11.02
2017-05-06T07:53:29.375Z,10.96
2017-05-06T07:54:38.269Z,11.11
2017-05-06T07:55:47.461Z,11.21
2017-05-06T07:56:56.678Z,11.07
2017-05-06T07:58:05.569Z,11.14
2017-05-06T07:59:14.458Z,11.11
2017-05-06T08:00:23.687Z,11.11
2017-05-06T08:01:32.577Z,11.14
2017-05-06T08:02:41.470Z,11.22
2017-05-06T08:03:50.686Z,11.24
2017-05-06T08:04:59.580Z,11.29
2017-05-06T08:06:08.894Z,11.33
2017-05-06T08:07:17.790Z,11.35
2017-05-06T08:08:26.687Z,11.33
2017-05-06T08:09:35.587Z,11.33
2017-05-06T08:10:45.125Z,11.39
2017-05-06T08:11:54.815Z,11.37
2017-05-06T08:13:03.710Z,11.37
2017-05-06T08:14:12.600Z,11.4
2017-05-06T08:15:21.817Z,11.43
2017-05-06T08:16:31.036Z,11.49
2017-05-06T08:17:40.087Z,11.49
2017-05-06T08:18:48.994Z,11.47
2017-05-06T08:19:57.892Z,11.47
2017-05-06T08:21:06.789Z,11.73
2017-05-06T08:22:15.682Z,11.62
2017-05-06T08:23:24.824Z,11.65
2017-05-06T08:24:34.040Z,11.72
2017-05-06T08:25:42.935Z,11.8
2017-05-06T08:26:52.164Z,11.86
2017-05-06T08:28:01.058Z,11.86
2017-05-06T08:29:09.951Z,11.88
2017-05-06T08:30:18.845Z,11.9
2017-05-06T08:31:28.068Z,11.9
2017-05-06T08:32:36.959Z,11.91
2017-05-06T08:33:45.854Z,11.83
2017-05-06T08:34:55.226Z,11.79
2017-05-06T08:36:04.451Z,11.79
2017-05-06T08:37:13.348Z,11.82
2017-05-06T08:38:22.565Z,11.79
2017-05-06T08:39:31.457Z,11.94
2017-05-06T08:40:40.825Z,11.88
2017-05-06T08:41:50.094Z,11.98
2017-05-06T08:42:58.989Z,11.94
2017-05-06T08:44:08.206Z,12.1
2017-05-06T08:45:17.454Z,12.04
2017-05-06T08:46:26.723Z,12.17
2017-05-06T08:47:35.619Z,12.05
2017-05-06T08:48:44.834Z,12.17
2017-05-06T08:49:54.052Z,12.1
2017-05-06T08:51:03.599Z,12.17
2017-05-06T08:52:12.547Z,12.16
2017-05-06T08:53:22.421Z,12.1
2017-05-06T08:54:31.640Z,12.05
2017-05-06T08:55:40.860Z,11.91
2017-05-06T08:56:50.085Z,11.9
2017-05-06T08:57:59.031Z,12.1
2017-05-06T08:59:07.923Z,12.1
2017-05-06T09:00:16.818Z,12.16
2017-05-06T09:01:26.039Z,12.27
2017-05-06T09:02:35.276Z,12.39
2017-05-06T09:03:44.473Z,12.41
2017-05-06T09:04:54.024Z,12.45
2017-05-06T09:06:03.567Z,12.35
2017-05-06T09:07:12.466Z,12.34
2017-05-06T09:08:21.683Z,12.29
2017-05-06T09:09:30.831Z,12.37
2017-05-06T09:10:41.024Z,12.31
2017-05-06T09:11:49.918Z,12.38
2017-05-06T09:12:59.172Z,12.28
2017-05-06T09:14:08.402Z,12.13
2017-05-06T09:15:17.672Z,12.2
2017-05-06T09:16:26.568Z,12.24
2017-05-06T09:17:36.120Z,12.41
2017-05-06T09:18:45.347Z,12.31
2017-05-06T09:19:54.575Z,12.32
2017-05-06T09:21:03.778Z,12.28
2017-05-06T09:22:13.013Z,12.27
2017-05-06T09:23:22.241Z,12.2
2017-05-06T09:24:31.485Z,12.27
2017-05-06T09:25:40.389Z,12.31
2017-05-06T09:26:49.610Z,12.41
2017-05-06T09:27:58.508Z,12.41
2017-05-06T09:29:07.405Z,12.49
2017-05-06T09:30:16.627Z,12.42
2017-05-06T09:31:25.843Z,12.41
2017-05-06T09:32:35.164Z,12.47
2017-05-06T09:33:45.041Z,12.45
2017-05-06T09:34:53.936Z,12.56
2017-05-06T09:36:03.157Z,12.68
2017-05-06T09:37:12.053Z,12.77
2017-05-06T09:38:21.350Z,12.83
2017-05-06T09:39:30.569Z,12.79
2017-05-06T09:40:39.464Z,12.85
2017-05-06T09:41:48.399Z,12.78
2017-05-06T09:42:57.946Z,12.97
2017-05-06T09:44:07.643Z,13.07
2017-05-06T09:45:16.858Z,13.03
2017-05-06T09:46:26.080Z,13.08
2017-05-06T09:47:35.623Z,12.93
2017-05-06T09:48:44.520Z,12.89
2017-05-06T09:49:53.470Z,12.86
2017-05-06T09:51:02.699Z,13.03
2017-05-06T09:52:11.609Z,13.04
2017-05-06T09:53:20.509Z,13.14
2017-05-06T09:54:29.462Z,12.92
2017-05-06T09:55:38.515Z,12.95
2017-05-06T09:56:47.417Z,12.89
2017-05-06T09:57:56.934Z,12.87
2017-05-06T09:59:06.156Z,12.85
2017-05-06T10:00:15.047Z,12.96
2017-05-06T10:01:24.371Z,13.04
2017-05-06T10:02:33.266Z,13.2
2017-05-06T10:03:42.160Z,13.26
2017-05-06T10:04:51.053Z,13.26
2017-05-06T10:06:00.275Z,13.15
2017-05-06T10:07:09.548Z,13.05
2017-05-06T10:08:18.772Z,13.05
2017-05-06T10:09:27.667Z,13.22
2017-05-06T10:10:36.580Z,13.46
2017-05-06T10:11:45.483Z,13.55
2017-05-06T10:12:54.706Z,13.54
2017-05-06T10:14:03.602Z,13.39
2017-05-06T10:15:12.504Z,13.51
2017-05-06T10:16:21.399Z,13.63
2017-05-06T10:17:30.299Z,13.75
2017-05-06T10:18:39.567Z,13.87
2017-05-06T10:19:48.465Z,13.99
2017-05-06T10:20:57.682Z,13.97
2017-05-06T10:22:06.901Z,13.99
2017-05-06T10:23:16.123Z,13.89
2017-05-06T10:24:25.541Z,13.75
2017-05-06T10:25:34.438Z,13.69
2017-05-06T10:26:43.351Z,13.77
2017-05-06T10:27:52.898Z,13.78
2017-05-06T10:29:01.797Z,13.78
2017-05-06T10:30:11.171Z,13.81
2017-05-06T10:31:20.391Z,13.77
2017-05-06T10:32:29.325Z,13.75
2017-05-06T10:33:38.886Z,13.71
2017-05-06T10:34:47.796Z,13.84
2017-05-06T10:35:57.269Z,13.99
2017-05-06T10:37:06.163Z,13.97
2017-05-06T10:38:15.082Z,13.92
2017-05-06T10:39:24.302Z,14.03
2017-05-06T10:40:33.198Z,14
2017-05-06T10:41:42.527Z,14.17
2017-05-06T10:42:52.080Z,14.22
2017-05-06T10:44:01.312Z,14.27
2017-05-06T10:45:10.206Z,14.17
2017-05-06T10:46:19.103Z,14.12
2017-05-06T10:47:28.202Z,14.09
2017-05-06T10:48:37.098Z,13.87
2017-05-06T10:49:45.994Z,13.77
2017-05-06T10:50:55.540Z,13.92
2017-05-06T10:52:04.768Z,14.02
2017-05-06T10:53:13.711Z,14.15
2017-05-06T10:54:22.931Z,14.06
2017-05-06T10:55:31.823Z,14
2017-05-06T10:56:41.377Z,14
2017-05-06T10:57:50.922Z,14.09
2017-05-06T10:59:00.621Z,14.09
2017-05-06T11:00:09.850Z,13.97
2017-05-06T11:01:18.773Z,13.84
2017-05-06T11:02:27.676Z,14.06
2017-05-06T11:03:37.225Z,14.09
2017-05-06T11:04:46.745Z,13.96
2017-05-06T11:05:55.647Z,14.09
2017-05-06T11:07:04.545Z,14.15
2017-05-06T11:08:13.444Z,14.25
2017-05-06T11:09:22.339Z,14.54
2017-05-06T11:10:31.235Z,14.55
2017-05-06T11:11:40.131Z,14.55
2017-05-06T11:12:49.680Z,14.6
2017-05-06T11:13:58.575Z,14.62
2017-05-06T11:15:07.477Z,14.7
2017-05-06T11:16:16.468Z,14.62
2017-05-06T11:17:25.691Z,14.68
2017-05-06T11:18:34.910Z,14.73
2017-05-06T11:19:43.838Z,14.62
2017-05-06T11:20:53.074Z,14.65
2017-05-06T11:22:02.119Z,14.55
2017-05-06T11:23:11.022Z,14.52
2017-05-06T11:24:20.243Z,14.81
2017-05-06T11:25:29.142Z,14.98
2017-05-06T11:26:38.042Z,14.98
2017-05-06T11:27:47.145Z,15.13
2017-05-06T11:28:56.701Z,15.09
2017-05-06T11:30:06.253Z,15.03
2017-05-06T11:31:15.151Z,15.14
2017-05-06T11:32:24.079Z,15.14
2017-05-06T11:33:33.131Z,15.13
2017-05-06T11:34:42.359Z,15.13
2017-05-06T11:35:51.582Z,15.14
2017-05-06T11:37:00.811Z,15.16
2017-05-06T11:38:09.709Z,15.27
2017-05-06T11:39:19.279Z,15.25
2017-05-06T11:40:28.171Z,15.19
2017-05-06T11:41:37.070Z,15.14
2017-05-06T11:42:45.969Z,15.13
2017-05-06T11:43:54.868Z,15.21
2017-05-06T11:45:04.244Z,15.28
2017-05-06T11:46:13.146Z,15.27
2017-05-06T11:47:22.097Z,15.43
2017-05-06T11:48:30.992Z,15.49
2017-05-06T11:49:39.889Z,15.62
2017-05-06T11:50:49.363Z,15.75
2017-05-06T11:51:58.263Z,15.84
2017-05-06T11:53:07.186Z,15.83
2017-05-06T11:54:16.080Z,16.07
2017-05-06T11:55:24.981Z,16.08
2017-05-06T11:56:33.982Z,16.15
2017-05-06T11:57:42.882Z,16.01
2017-05-06T11:58:52.437Z,16.24
2017-05-06T12:00:01.336Z,16.27
2017-05-06T12:01:10.231Z,16.14
2017-05-06T12:02:19.439Z,16.02
2017-05-06T12:03:28.336Z,16.17
2017-05-06T12:04:37.562Z,16
2017-05-06T12:05:46.463Z,15.87
2017-05-06T12:06:55.362Z,15.82
2017-05-06T12:08:04.415Z,15.89
2017-05-06T12:09:13.342Z,16.04
2017-05-06T12:10:22.564Z,16.01
2017-05-06T12:11:31.784Z,16
2017-05-06T12:12:40.681Z,16
2017-05-06T12:13:50.053Z,16.11
2017-05-06T12:14:58.955Z,16.14
2017-05-06T12:16:08.181Z,16.33
2017-05-06T12:17:17.112Z,16.6
2017-05-06T12:18:26.342Z,16.75
2017-05-06T12:19:35.344Z,16.94
2017-05-06T12:20:44.242Z,17.03
2017-05-06T12:21:53.140Z,17.15
2017-05-06T12:23:02.372Z,17.28
2017-05-06T12:24:11.280Z,17.14
2017-05-06T12:25:20.481Z,17.08
2017-05-06T12:26:29.382Z,17.14
2017-05-06T12:27:38.613Z,17.07
2017-05-06T12:28:47.518Z,16.98
2017-05-06T12:29:56.422Z,17.01
2017-05-06T12:31:06.069Z,17.06
2017-05-06T12:32:15.296Z,17.16
2017-05-06T12:33:24.198Z,17.15
2017-05-06T12:34:33.750Z,16.93
2017-05-06T12:35:42.650Z,16.96
2017-05-06T12:36:51.548Z,16.94
2017-05-06T12:38:00.452Z,16.86
2017-05-06T12:39:09.356Z,17.06
2017-05-06T12:40:18.582Z,16.76
2017-05-06T12:41:27.482Z,16.86
2017-05-06T12:42:37.225Z,16.85
2017-05-06T12:43:46.123Z,16.88
2017-05-06T12:44:55.029Z,16.93
2017-05-06T12:46:04.263Z,16.94
2017-05-06T12:47:13.169Z,17.04
2017-05-06T12:48:22.218Z,17.04
2017-05-06T12:49:31.774Z,17.19
2017-05-06T12:50:40.671Z,17.25
2017-05-06T12:51:49.589Z,17.33
2017-05-06T12:52:58.487Z,17.22
2017-05-06T12:54:07.438Z,17.33
2017-05-06T12:55:16.663Z,17.49
2017-05-06T12:56:25.562Z,17.51
2017-05-06T12:57:34.461Z,17.43
2017-05-06T12:58:43.361Z,17.41
2017-05-06T12:59:52.768Z,17.37
2017-05-06T13:01:01.997Z,17.21
2017-05-06T13:02:11.228Z,17.03
2017-05-06T13:03:20.134Z,16.89
2017-05-06T13:04:29.684Z,16.83
2017-05-06T13:05:38.590Z,16.73
2017-05-06T13:06:47.489Z,16.63
2017-05-06T13:07:56.415Z,16.58
2017-05-06T13:09:05.648Z,16.73
2017-05-06T13:10:14.868Z,16.71
2017-05-06T13:11:23.818Z,16.68
2017-05-06T13:12:32.718Z,16.7
2017-05-06T13:13:42.272Z,16.46
2017-05-06T13:14:51.497Z,16.42
2017-05-06T13:16:00.398Z,16.38
2017-05-06T13:17:09.448Z,16.17
2017-05-06T13:18:18.686Z,16.27
2017-05-06T13:19:27.583Z,16.35
2017-05-06T13:20:36.803Z,16.3
2017-05-06T13:21:45.701Z,16.43
2017-05-06T13:22:54.750Z,16.45
2017-05-06T13:24:03.970Z,16.25
2017-05-06T13:25:13.190Z,16.33
2017-05-06T13:26:22.414Z,16.3
2017-05-06T13:27:31.313Z,16.25
2017-05-06T13:28:40.416Z,16.34
2017-05-06T13:29:49.312Z,16.25
2017-05-06T13:30:58.209Z,16.28
2017-05-06T13:32:07.754Z,16.35
2017-05-06T13:33:16.654Z,16.46
2017-05-06T13:34:25.847Z,16.28
2017-05-06T13:35:34.755Z,16.25
2017-05-06T13:36:43.656Z,16.34
2017-05-06T13:37:52.556Z,16.35
2017-05-06T13:39:01.456Z,16.24
2017-05-06T13:40:10.830Z,16.33
2017-05-06T13:41:20.052Z,15.94
2017-05-06T13:42:28.947Z,16.01
2017-05-06T13:43:37.841Z,16.02
2017-05-06T13:44:47.060Z,16.04
2017-05-06T13:45:56.428Z,16.07
2017-05-06T13:47:05.972Z,16.23
2017-05-06T13:48:15.195Z,16.31
2017-05-06T13:49:24.093Z,16.23
2017-05-06T13:50:32.986Z,16.09
2017-05-06T13:51:42.183Z,16.02
2017-05-06T13:52:51.083Z,16.07
2017-05-06T13:54:00.954Z,16.12
2017-05-06T13:55:09.852Z,16.02
2017-05-06T13:56:18.779Z,16.21
2017-05-06T13:57:28.052Z,16.46
2017-05-06T13:58:37.276Z,16.53
2017-05-06T13:59:46.501Z,16.35
2017-05-06T14:00:55.391Z,16.48
2017-05-06T14:02:04.612Z,16.5
2017-05-06T14:03:13.928Z,16.46
2017-05-06T14:04:23.024Z,16.49
2017-05-06T14:05:31.930Z,16.43
2017-05-06T14:06:41.151Z,16.09
2017-05-06T14:07:50.053Z,16.27
2017-05-06T14:08:59.101Z,16.24
2017-05-06T14:10:08.327Z,16.21
2017-05-06T14:11:17.553Z,16.12
2017-05-06T14:12:26.775Z,16.05
2017-05-06T14:13:35.686Z,16.14
2017-05-06T14:14:44.636Z,16.34
2017-05-06T14:15:53.855Z,16.57
2017-05-06T14:17:02.753Z,16.7
2017-05-06T14:18:11.646Z,16.82
2017-05-06T14:19:20.870Z,16.89
2017-05-06T14:20:29.797Z,16.75
2017-05-06T14:21:39.015Z,16.81
2017-05-06T14:22:48.240Z,16.73
2017-05-06T14:23:57.460Z,16.86
2017-05-06T14:25:06.684Z,16.96
2017-05-06T14:26:15.635Z,17.06
2017-05-06T14:27:24.534Z,17.04
2017-05-06T14:28:33.438Z,17.01
2017-05-06T14:29:42.337Z,16.94
2017-05-06T14:30:51.241Z,16.75
2017-05-06T14:32:00.623Z,16.71
2017-05-06T14:33:09.521Z,16.63
2017-05-06T14:34:18.414Z,16.52
2017-05-06T14:35:27.313Z,16.49
2017-05-06T14:36:36.213Z,16.71
2017-05-06T14:37:45.109Z,16.88
2017-05-06T14:38:54.009Z,16.91
2017-05-06T14:40:02.906Z,16.97
2017-05-06T14:41:11.800Z,16.88
2017-05-06T14:42:21.024Z,17.03
2017-05-06T14:43:30.066Z,16.98
2017-05-06T14:44:38.965Z,16.89
2017-05-06T14:45:48.191Z,16.73
2017-05-06T14:46:57.090Z,16.64
2017-05-06T14:48:06.638Z,16.6
2017-05-06T14:49:16.010Z,16.67
2017-05-06T14:50:24.907Z,16.58
2017-05-06T14:51:33.801Z,16.6
2017-05-06T14:52:42.701Z,16.46
2017-05-06T14:53:51.601Z,16.49
2017-05-06T14:55:00.550Z,16.42
2017-05-06T14:56:09.452Z,16.38
2017-05-06T14:57:18.354Z,16.43
2017-05-06T14:58:27.585Z,16.38
2017-05-06T14:59:36.812Z,16.31
2017-05-06T15:00:45.709Z,16.38
2017-05-06T15:01:54.605Z,16.23
2017-05-06T15:03:03.829Z,16.11
2017-05-06T15:04:13.059Z,16.04
2017-05-06T15:05:21.957Z,16
2017-05-06T15:06:30.904Z,16